< < Back
Terminal Aerodrome Forecast


Current Version              Previous Versions:   1  2  3  4  5  6  7  8  9  

Terminal Aerodrome Forecast

846
FTUS44 KBMX 310500
TAFTCL
TAF
KTCL 310520Z 3106/0106 34004KT P6SM SKC
     FM311800 33008KT P6SM SKC
     FM312100 33017KT P6SM OVC050
     FM010300 33011KT P6SM SKC=



Latest METAR

303
SAUS70 KWBC 312300 RRA
MTRTCL
METAR KTCL 312253Z 34010G22KT 10SM FEW033 FEW060 BKN080 14/09 A3004 RMK
AO2 SLP173 T01440089


USA.gov is the U.S. government's official web portal to all federal, state and local government web resources and services.